createdAt,value
2018-12-06T00:00:29.166Z,21.10
2018-12-06T00:02:55.197Z,21.10
2018-12-06T00:05:24.131Z,21.10
2018-12-06T00:07:50.154Z,21.00
2018-12-06T00:10:16.144Z,21.00
2018-12-06T00:12:42.165Z,21.00
2018-12-06T00:15:08.129Z,21.00
2018-12-06T00:17:34.127Z,21.00
2018-12-06T00:20:00.099Z,21.00
2018-12-06T00:22:26.091Z,21.00
2018-12-06T00:24:52.041Z,21.00
2018-12-06T00:27:18.013Z,21.00
2018-12-06T00:29:43.979Z,21.00
2018-12-06T00:32:09.927Z,21.00
2018-12-06T00:34:35.925Z,21.00
2018-12-06T00:37:01.997Z,21.00
2018-12-06T00:39:28.107Z,21.00
2018-12-06T00:41:54.053Z,21.00
2018-12-06T00:44:20.049Z,21.00
2018-12-06T00:46:46.045Z,21.00
2018-12-06T00:49:12.023Z,21.00
2018-12-06T00:51:38.010Z,20.90
2018-12-06T00:54:04.024Z,20.90
2018-12-06T00:56:30.006Z,20.90
2018-12-06T00:58:55.983Z,20.90
2018-12-06T01:01:21.984Z,20.90
2018-12-06T01:03:47.966Z,20.90
2018-12-06T01:06:13.967Z,20.90
2018-12-06T01:08:39.966Z,20.90
2018-12-06T01:11:05.990Z,20.80
2018-12-06T01:13:31.990Z,20.90
2018-12-06T01:15:57.930Z,20.80
2018-12-06T01:18:23.910Z,20.80
2018-12-06T01:20:49.876Z,20.80
2018-12-06T01:23:15.856Z,20.80
2018-12-06T01:25:41.815Z,20.90
2018-12-06T01:28:07.842Z,20.90
2018-12-06T01:30:33.795Z,20.90
2018-12-06T01:32:59.765Z,20.90
2018-12-06T01:35:25.748Z,21.00
2018-12-06T01:37:51.703Z,21.00
2018-12-06T01:40:17.702Z,21.00
2018-12-06T01:42:43.696Z,21.00
2018-12-06T01:45:09.671Z,21.00
2018-12-06T01:47:35.636Z,21.00
2018-12-06T01:50:01.610Z,21.00
2018-12-06T01:52:28.510Z,20.90
2018-12-06T01:54:54.482Z,20.90
2018-12-06T01:57:20.464Z,20.90
2018-12-06T01:59:46.465Z,20.90
2018-12-06T02:02:12.454Z,20.90
2018-12-06T02:04:38.433Z,20.90
2018-12-06T02:07:04.435Z,20.90
2018-12-06T02:09:30.421Z,20.90
2018-12-06T02:11:56.390Z,20.80
2018-12-06T02:14:22.403Z,20.80
2018-12-06T02:16:48.389Z,20.80
2018-12-06T02:19:14.402Z,20.80
2018-12-06T02:21:40.378Z,20.80
2018-12-06T02:24:06.340Z,20.80
2018-12-06T02:26:32.316Z,20.80
2018-12-06T02:28:58.292Z,20.80
2018-12-06T02:31:24.273Z,20.80
2018-12-06T02:33:50.317Z,20.80
2018-12-06T02:36:16.325Z,20.80
2018-12-06T02:38:42.300Z,20.80
2018-12-06T02:41:08.278Z,20.80
2018-12-06T02:43:34.269Z,20.80
2018-12-06T02:46:00.278Z,20.80
2018-12-06T02:48:26.276Z,20.80
2018-12-06T02:50:52.272Z,20.80
2018-12-06T02:53:18.390Z,20.90
2018-12-06T02:55:44.634Z,20.90
2018-12-06T02:58:10.604Z,20.90
2018-12-06T03:00:36.586Z,20.90
2018-12-06T03:03:02.582Z,21.00
2018-12-06T03:05:28.586Z,21.00
2018-12-06T03:07:54.603Z,21.00
2018-12-06T03:10:20.604Z,21.00
2018-12-06T03:12:46.581Z,21.00
2018-12-06T03:15:12.640Z,20.90
2018-12-06T03:17:38.750Z,20.90
2018-12-06T03:20:04.749Z,20.90
2018-12-06T03:22:30.736Z,20.90
2018-12-06T03:24:56.708Z,20.90
2018-12-06T03:27:22.707Z,20.90
2018-12-06T03:29:48.698Z,20.80
2018-12-06T03:32:14.684Z,20.80
2018-12-06T03:34:40.753Z,20.80
2018-12-06T03:37:07.690Z,20.80
2018-12-06T03:39:33.660Z,20.80
2018-12-06T03:41:59.653Z,20.80
2018-12-06T03:44:25.664Z,20.70
2018-12-06T03:46:51.637Z,20.80
2018-12-06T03:49:17.621Z,20.80
2018-12-06T03:51:43.586Z,20.80
2018-12-06T03:54:09.562Z,20.80
2018-12-06T03:56:35.522Z,20.80
2018-12-06T03:59:01.505Z,20.80
2018-12-06T04:01:27.620Z,20.80
2018-12-06T04:03:53.598Z,20.90
2018-12-06T04:06:19.576Z,20.90
2018-12-06T04:08:45.574Z,20.90
2018-12-06T04:11:11.553Z,20.90
2018-12-06T04:13:37.492Z,21.00
2018-12-06T04:16:03.507Z,21.00
2018-12-06T04:18:29.478Z,21.00
2018-12-06T04:20:55.474Z,21.00
2018-12-06T04:23:21.564Z,20.90
2018-12-06T04:25:47.566Z,20.90
2018-12-06T04:28:13.563Z,20.90
2018-12-06T04:30:39.672Z,20.90
2018-12-06T04:33:05.655Z,20.90
2018-12-06T04:35:31.664Z,20.80
2018-12-06T04:37:57.666Z,20.80
2018-12-06T04:40:23.660Z,20.80
2018-12-06T04:42:56.563Z,20.80
2018-12-06T04:45:22.564Z,20.80
2018-12-06T04:47:48.545Z,20.80
2018-12-06T04:50:14.522Z,20.70
2018-12-06T04:52:40.481Z,20.70
2018-12-06T04:55:06.458Z,20.70
2018-12-06T04:57:32.421Z,20.70
2018-12-06T04:59:58.390Z,20.70
2018-12-06T05:02:24.391Z,20.70
2018-12-06T05:04:50.507Z,20.80
2018-12-06T05:07:17.076Z,20.80
2018-12-06T05:09:43.033Z,20.80
2018-12-06T05:12:09.027Z,20.80
2018-12-06T05:14:35.054Z,20.80
2018-12-06T05:17:01.040Z,20.90
2018-12-06T05:19:27.247Z,20.90
2018-12-06T05:21:53.240Z,20.90
2018-12-06T05:24:19.209Z,21.00
2018-12-06T05:26:45.199Z,21.00
2018-12-06T05:29:11.144Z,21.00
2018-12-06T05:31:37.091Z,21.10
2018-12-06T05:34:03.044Z,21.10
2018-12-06T05:36:29.012Z,21.10
2018-12-06T05:38:54.972Z,21.00
2018-12-06T05:41:21.041Z,21.00
2018-12-06T05:43:47.034Z,21.10
2018-12-06T05:46:13.004Z,21.10
2018-12-06T05:48:38.988Z,21.10
2018-12-06T05:51:04.970Z,21.10
2018-12-06T05:53:30.962Z,21.10
2018-12-06T05:55:56.958Z,21.10
2018-12-06T05:58:22.930Z,21.10
2018-12-06T06:00:49.009Z,21.10
2018-12-06T06:03:15.012Z,21.10
2018-12-06T06:05:41.170Z,21.20
2018-12-06T06:08:07.185Z,21.20
2018-12-06T06:10:33.191Z,21.20
2018-12-06T06:12:59.195Z,21.20
2018-12-06T06:15:25.180Z,21.20
2018-12-06T06:17:51.166Z,21.30
2018-12-06T06:20:17.144Z,21.30
2018-12-06T06:22:43.110Z,21.20
2018-12-06T06:25:09.077Z,21.30
2018-12-06T06:27:35.058Z,21.30
2018-12-06T06:30:01.074Z,21.30
2018-12-06T06:32:27.055Z,21.20
2018-12-06T06:34:53.030Z,21.20
2018-12-06T06:37:19.014Z,21.20
2018-12-06T06:39:44.977Z,21.10
2018-12-06T06:42:10.979Z,21.20
2018-12-06T06:44:37.001Z,21.10
2018-12-06T06:47:02.989Z,21.10
2018-12-06T06:49:28.953Z,21.10
2018-12-06T06:51:54.960Z,21.10
2018-12-06T06:54:20.986Z,21.20
2018-12-06T06:56:46.972Z,21.10
2018-12-06T06:59:12.976Z,21.10
2018-12-06T07:01:38.968Z,21.10
2018-12-06T07:04:11.821Z,21.10
2018-12-06T07:06:37.821Z,21.10
2018-12-06T07:09:03.946Z,21.10
2018-12-06T07:11:29.935Z,21.10
2018-12-06T07:13:55.941Z,21.00
2018-12-06T07:16:21.902Z,20.90
2018-12-06T07:18:47.859Z,20.90
2018-12-06T07:21:13.819Z,20.90
2018-12-06T07:23:39.795Z,20.90
2018-12-06T07:26:05.831Z,20.90
2018-12-06T07:28:31.841Z,21.00
2018-12-06T07:30:57.827Z,20.90
2018-12-06T07:33:23.817Z,20.90
2018-12-06T07:35:49.797Z,20.90
2018-12-06T07:38:15.887Z,21.00
2018-12-06T07:40:41.925Z,21.00
2018-12-06T07:43:07.930Z,21.00
2018-12-06T07:45:33.900Z,21.10
2018-12-06T07:47:59.863Z,21.10
2018-12-06T07:50:25.840Z,21.10
2018-12-06T07:52:51.954Z,21.20
2018-12-06T07:55:18.073Z,21.20
2018-12-06T07:57:44.096Z,21.20
2018-12-06T08:00:10.065Z,21.20
2018-12-06T08:02:36.105Z,21.20
2018-12-06T08:05:02.159Z,21.20
2018-12-06T08:07:28.157Z,21.20
2018-12-06T08:09:54.144Z,21.20
2018-12-06T08:12:20.124Z,21.10
2018-12-06T08:14:46.172Z,21.10
2018-12-06T08:17:12.155Z,21.10
2018-12-06T08:19:38.152Z,21.10
2018-12-06T08:22:04.159Z,21.00
2018-12-06T08:24:30.246Z,21.00
2018-12-06T08:26:56.273Z,21.00
2018-12-06T08:29:22.270Z,20.90
2018-12-06T08:31:48.270Z,20.90
2018-12-06T08:34:14.232Z,20.90
2018-12-06T08:36:40.232Z,20.90
2018-12-06T08:39:06.207Z,20.90
2018-12-06T08:41:32.216Z,20.90
2018-12-06T08:43:58.227Z,20.90
2018-12-06T08:46:24.181Z,20.90
2018-12-06T08:48:50.557Z,20.90
2018-12-06T08:51:16.544Z,20.90
2018-12-06T08:53:42.494Z,20.90
2018-12-06T08:56:08.480Z,20.90
2018-12-06T08:58:34.472Z,20.80
2018-12-06T09:01:00.435Z,20.80
2018-12-06T09:03:26.412Z,20.80
2018-12-06T09:05:52.428Z,20.80
2018-12-06T09:08:18.514Z,20.80
2018-12-06T09:10:51.303Z,20.70
2018-12-06T09:13:12.494Z,20.70
2018-12-06T09:15:38.597Z,20.70
2018-12-06T09:18:04.591Z,20.70
2018-12-06T09:20:30.575Z,20.70
2018-12-06T09:22:56.594Z,20.60
2018-12-06T09:25:22.574Z,20.60
2018-12-06T09:27:48.561Z,20.60
2018-12-06T09:30:14.637Z,20.60
2018-12-06T09:32:40.662Z,20.50
2018-12-06T09:35:06.664Z,20.50
2018-12-06T09:37:32.666Z,20.50
2018-12-06T09:39:58.650Z,20.50
2018-12-06T09:42:25.414Z,20.50
2018-12-06T09:44:51.373Z,20.40
2018-12-06T09:47:17.440Z,20.40
2018-12-06T09:49:43.433Z,20.40
2018-12-06T09:52:09.415Z,20.40
2018-12-06T09:54:35.378Z,20.40
2018-12-06T09:57:01.367Z,20.30
2018-12-06T09:59:27.355Z,20.30
2018-12-06T10:01:53.698Z,20.30
2018-12-06T10:04:19.676Z,20.30
2018-12-06T10:06:45.688Z,20.30
2018-12-06T10:09:11.653Z,20.30
2018-12-06T10:11:37.652Z,20.30
2018-12-06T10:14:03.656Z,20.30
2018-12-06T10:16:29.760Z,20.30
2018-12-06T10:18:55.722Z,20.20
2018-12-06T10:21:21.713Z,20.20
2018-12-06T10:23:47.710Z,20.20
2018-12-06T10:26:13.677Z,20.20
2018-12-06T10:28:39.673Z,20.20
2018-12-06T10:31:05.656Z,20.20
2018-12-06T10:33:31.658Z,20.20
2018-12-06T10:35:57.649Z,20.20
2018-12-06T10:38:23.659Z,20.20
2018-12-06T10:40:49.716Z,20.20
2018-12-06T10:43:15.713Z,20.20
2018-12-06T10:45:41.678Z,20.20
2018-12-06T10:48:07.632Z,20.20
2018-12-06T10:50:33.604Z,20.20
2018-12-06T10:52:59.595Z,20.20
2018-12-06T10:55:25.553Z,20.20
2018-12-06T10:57:51.504Z,20.20
2018-12-06T11:00:23.591Z,20.20
2018-12-06T11:02:51.623Z,20.20
2018-12-06T11:05:17.596Z,20.20
2018-12-06T11:07:43.592Z,20.10
2018-12-06T11:10:09.580Z,20.20
2018-12-06T11:12:35.547Z,20.10
2018-12-06T11:15:01.569Z,20.10
2018-12-06T11:17:27.517Z,20.20
2018-12-06T11:19:53.531Z,20.10
2018-12-06T11:22:19.546Z,20.10
2018-12-06T11:24:45.529Z,20.10
2018-12-06T11:27:11.529Z,20.10
2018-12-06T11:29:38.402Z,20.10
2018-12-06T11:32:04.420Z,20.10
2018-12-06T11:34:30.528Z,20.10
2018-12-06T11:36:56.625Z,20.10
2018-12-06T11:39:22.625Z,20.20
2018-12-06T11:41:48.840Z,20.20
2018-12-06T11:44:14.830Z,20.10
2018-12-06T11:46:40.808Z,20.20
2018-12-06T11:49:06.770Z,20.20
2018-12-06T11:51:32.796Z,20.20
2018-12-06T11:53:58.790Z,20.20
2018-12-06T11:56:24.781Z,20.20
2018-12-06T11:58:51.475Z,20.20
2018-12-06T12:01:17.590Z,20.30
2018-12-06T12:03:43.566Z,20.20
2018-12-06T12:06:09.526Z,20.30
2018-12-06T12:08:35.543Z,20.30
2018-12-06T12:11:01.540Z,20.30
2018-12-06T12:13:27.533Z,20.30
2018-12-06T12:15:53.500Z,20.30
2018-12-06T12:18:19.500Z,20.30
2018-12-06T12:20:45.524Z,20.30
2018-12-06T12:23:11.497Z,20.30
2018-12-06T12:25:37.463Z,20.30
2018-12-06T12:28:03.436Z,20.30
2018-12-06T12:30:29.415Z,20.30
2018-12-06T12:32:55.411Z,20.30
2018-12-06T12:35:21.423Z,20.30
2018-12-06T12:37:47.415Z,20.30
2018-12-06T12:40:13.440Z,20.30
2018-12-06T12:42:39.440Z,20.30
2018-12-06T12:45:05.459Z,20.30
2018-12-06T12:47:31.403Z,20.30
2018-12-06T12:49:57.411Z,20.30
2018-12-06T12:52:23.423Z,20.30
2018-12-06T12:54:49.435Z,20.30
2018-12-06T12:57:15.442Z,20.20
2018-12-06T12:59:41.411Z,20.20
2018-12-06T13:02:07.441Z,20.20
2018-12-06T13:04:33.436Z,20.20
2018-12-06T13:06:59.425Z,20.20
2018-12-06T13:09:25.421Z,20.20
2018-12-06T13:11:51.439Z,20.10
2018-12-06T13:14:17.436Z,20.10
2018-12-06T13:16:43.409Z,20.20
2018-12-06T13:19:09.395Z,20.10
2018-12-06T13:21:35.393Z,20.10
2018-12-06T13:24:01.377Z,20.10
2018-12-06T13:26:27.354Z,20.10
2018-12-06T13:28:53.363Z,20.10
2018-12-06T13:31:19.354Z,20.10
2018-12-06T13:33:45.341Z,20.10
2018-12-06T13:36:11.323Z,20.10
2018-12-06T13:38:37.304Z,20.10
2018-12-06T13:41:03.307Z,20.10
2018-12-06T13:43:29.323Z,20.10
2018-12-06T13:45:55.325Z,20.00
2018-12-06T13:48:21.436Z,20.10
2018-12-06T13:50:47.405Z,20.10
2018-12-06T13:53:13.429Z,20.10
2018-12-06T13:55:40.013Z,20.00
2018-12-06T13:58:06.034Z,20.00
2018-12-06T14:00:32.604Z,20.00
2018-12-06T14:02:58.913Z,20.00
2018-12-06T14:05:25.466Z,20.00
2018-12-06T14:07:51.789Z,20.00
2018-12-06T14:10:17.801Z,20.00
2018-12-06T14:12:43.821Z,20.00
2018-12-06T14:15:10.095Z,20.00
2018-12-06T14:17:36.363Z,20.00
2018-12-06T14:20:02.481Z,20.00
2018-12-06T14:22:28.495Z,20.00
2018-12-06T14:24:54.501Z,20.00
2018-12-06T14:27:20.475Z,20.00
2018-12-06T14:29:46.642Z,20.00
2018-12-06T14:32:12.717Z,20.00
2018-12-06T14:34:38.903Z,20.00
2018-12-06T14:37:05.198Z,20.00
2018-12-06T14:39:31.532Z,20.00
2018-12-06T14:41:57.604Z,20.00
2018-12-06T14:44:24.064Z,20.00
2018-12-06T14:46:50.220Z,20.10
2018-12-06T14:49:16.339Z,20.10
2018-12-06T14:51:42.481Z,20.10
2018-12-06T14:54:08.584Z,20.20
2018-12-06T14:56:34.814Z,20.10
2018-12-06T14:59:01.182Z,20.20
2018-12-06T15:01:27.510Z,20.20
2018-12-06T15:03:53.537Z,20.10
2018-12-06T15:06:19.524Z,20.10
2018-12-06T15:08:45.506Z,20.10
2018-12-06T15:11:11.500Z,20.20
2018-12-06T15:13:37.460Z,20.20
2018-12-06T15:16:03.442Z,20.20
2018-12-06T15:18:29.447Z,20.20
2018-12-06T15:20:55.425Z,20.30
2018-12-06T15:23:21.445Z,20.40
2018-12-06T15:25:47.507Z,20.40
2018-12-06T15:28:13.490Z,20.40
2018-12-06T15:30:39.475Z,20.50
2018-12-06T15:33:05.463Z,20.50
2018-12-06T15:35:31.467Z,20.60
2018-12-06T15:37:57.553Z,20.60
2018-12-06T15:40:23.538Z,20.70
2018-12-06T15:42:49.525Z,20.70
2018-12-06T15:45:15.502Z,20.70
2018-12-06T15:47:41.680Z,20.70
2018-12-06T15:50:07.704Z,20.80
2018-12-06T15:52:33.672Z,20.80
2018-12-06T15:54:59.672Z,20.80
2018-12-06T15:57:25.658Z,20.80
2018-12-06T15:59:51.626Z,20.90
2018-12-06T16:02:17.617Z,20.90
2018-12-06T16:04:43.597Z,20.90
2018-12-06T16:07:09.749Z,20.90
2018-12-06T16:09:35.926Z,21.00
2018-12-06T16:12:01.933Z,21.00
2018-12-06T16:14:27.970Z,21.00
2018-12-06T16:16:54.004Z,21.00
2018-12-06T16:19:20.023Z,21.10
2018-12-06T16:21:46.018Z,21.10
2018-12-06T16:24:11.986Z,21.10
2018-12-06T16:26:37.959Z,21.10
2018-12-06T16:29:03.954Z,21.10
2018-12-06T16:31:29.941Z,21.20
2018-12-06T16:33:55.951Z,21.20
2018-12-06T16:36:21.918Z,21.20
2018-12-06T16:38:47.897Z,21.20
2018-12-06T16:41:14.026Z,21.20
2018-12-06T16:43:40.177Z,21.30
2018-12-06T16:46:06.168Z,21.30
2018-12-06T16:48:32.216Z,21.30
2018-12-06T16:50:58.219Z,21.30
2018-12-06T16:53:24.375Z,21.30
2018-12-06T16:55:50.359Z,21.30
2018-12-06T16:58:16.333Z,21.30
2018-12-06T17:00:42.314Z,21.40
2018-12-06T17:03:08.303Z,21.40
2018-12-06T17:05:34.313Z,21.40
2018-12-06T17:08:00.293Z,21.40
2018-12-06T17:10:26.320Z,21.40
2018-12-06T17:12:52.301Z,21.50
2018-12-06T17:15:18.311Z,21.50
2018-12-06T17:17:44.310Z,21.50
2018-12-06T17:20:10.310Z,21.50
2018-12-06T17:22:36.305Z,21.50
2018-12-06T17:25:02.294Z,21.50
2018-12-06T17:27:28.375Z,21.50
2018-12-06T17:29:54.625Z,21.60
2018-12-06T17:32:20.599Z,21.60
2018-12-06T17:34:46.597Z,21.60
2018-12-06T17:37:12.587Z,21.60
2018-12-06T17:39:38.689Z,21.60
2018-12-06T17:42:04.711Z,21.60
2018-12-06T17:44:30.673Z,21.70
2018-12-06T17:46:58.693Z,21.70
2018-12-06T17:49:24.702Z,21.60
2018-12-06T17:51:50.700Z,21.70
2018-12-06T17:54:16.720Z,21.70
2018-12-06T17:56:42.740Z,21.70
2018-12-06T17:59:08.723Z,21.70
2018-12-06T18:01:34.719Z,21.70
2018-12-06T18:04:00.706Z,21.70
2018-12-06T18:06:26.719Z,21.70
2018-12-06T18:08:52.709Z,21.80
2018-12-06T18:11:18.734Z,21.80
2018-12-06T18:13:44.891Z,21.80
2018-12-06T18:16:10.886Z,21.80
2018-12-06T18:18:40.419Z,21.80
2018-12-06T18:21:04.981Z,21.80
2018-12-06T18:23:30.986Z,21.90
2018-12-06T18:25:57.003Z,21.80
2018-12-06T18:28:23.197Z,21.80
2018-12-06T18:30:49.275Z,21.90
2018-12-06T18:33:15.281Z,21.90
2018-12-06T18:35:41.299Z,21.90
2018-12-06T18:38:07.416Z,21.90
2018-12-06T18:40:33.400Z,21.90
2018-12-06T18:42:59.374Z,21.80
2018-12-06T18:45:25.365Z,21.80
2018-12-06T18:47:51.482Z,21.70
2018-12-06T18:50:17.481Z,21.70
2018-12-06T18:52:43.485Z,21.80
2018-12-06T18:55:09.497Z,21.80
2018-12-06T18:57:35.586Z,21.90
2018-12-06T19:00:01.577Z,21.80
2018-12-06T19:02:27.606Z,21.90
2018-12-06T19:04:53.584Z,21.90
2018-12-06T19:07:19.588Z,21.90
2018-12-06T19:09:45.580Z,21.90
2018-12-06T19:12:11.580Z,22.00
2018-12-06T19:14:37.575Z,21.90
2018-12-06T19:17:03.562Z,22.00
2018-12-06T19:19:29.544Z,22.00
2018-12-06T19:21:55.540Z,22.00
2018-12-06T19:24:21.558Z,22.00
2018-12-06T19:26:47.572Z,22.00
2018-12-06T19:29:13.559Z,22.10
2018-12-06T19:31:39.571Z,22.10
2018-12-06T19:34:05.608Z,22.10
2018-12-06T19:36:31.610Z,22.10
2018-12-06T19:38:57.600Z,22.00
2018-12-06T19:41:23.611Z,22.00
2018-12-06T19:43:49.602Z,22.00
2018-12-06T19:46:15.600Z,21.90
2018-12-06T19:48:41.586Z,21.80
2018-12-06T19:51:07.622Z,21.90
2018-12-06T19:53:33.620Z,21.90
2018-12-06T19:55:59.614Z,21.90
2018-12-06T19:58:25.598Z,21.90
2018-12-06T20:00:51.585Z,21.90
2018-12-06T20:03:17.575Z,21.90
2018-12-06T20:05:43.730Z,22.00
2018-12-06T20:08:10.732Z,21.90
2018-12-06T20:10:43.895Z,22.00
2018-12-06T20:13:09.906Z,22.00
2018-12-06T20:15:35.920Z,22.10
2018-12-06T20:18:01.884Z,22.10
2018-12-06T20:20:28.188Z,22.10
2018-12-06T20:22:54.413Z,22.10
2018-12-06T20:25:20.459Z,22.10
2018-12-06T20:27:46.447Z,22.10
2018-12-06T20:30:12.495Z,22.10
2018-12-06T20:32:38.484Z,22.20
2018-12-06T20:35:04.489Z,22.20
2018-12-06T20:37:30.510Z,22.20
2018-12-06T20:39:56.517Z,22.20
2018-12-06T20:42:22.506Z,22.20
2018-12-06T20:44:49.407Z,22.20
2018-12-06T20:47:18.426Z,22.20
2018-12-06T20:49:44.434Z,22.30
2018-12-06T20:52:10.425Z,22.30
2018-12-06T20:54:36.438Z,22.30
2018-12-06T20:57:02.445Z,22.20
2018-12-06T20:59:28.461Z,22.20
2018-12-06T21:01:54.956Z,22.20
2018-12-06T21:04:21.218Z,22.20
2018-12-06T21:06:47.205Z,22.10
2018-12-06T21:09:13.235Z,22.10
2018-12-06T21:11:39.249Z,22.10
2018-12-06T21:14:05.252Z,22.10
2018-12-06T21:16:31.226Z,22.10
2018-12-06T21:18:57.587Z,22.00
2018-12-06T21:21:24.037Z,22.10
2018-12-06T21:23:50.148Z,22.00
2018-12-06T21:26:16.126Z,22.00
2018-12-06T21:28:42.093Z,22.00
2018-12-06T21:31:08.449Z,22.00
2018-12-06T21:33:34.476Z,21.90
2018-12-06T21:36:01.514Z,21.90
2018-12-06T21:38:27.481Z,21.90
2018-12-06T21:40:53.503Z,21.90
2018-12-06T21:43:19.482Z,21.90
2018-12-06T21:45:45.459Z,21.90
2018-12-06T21:48:11.436Z,21.80
2018-12-06T21:50:37.408Z,21.80
2018-12-06T21:53:03.388Z,21.80
2018-12-06T21:55:29.368Z,21.70
2018-12-06T21:57:55.394Z,21.70
2018-12-06T22:00:21.360Z,21.70
2018-12-06T22:02:47.344Z,21.70
2018-12-06T22:05:13.333Z,21.70
2018-12-06T22:07:39.330Z,21.60
2018-12-06T22:10:05.350Z,21.70
2018-12-06T22:12:31.321Z,21.70
2018-12-06T22:14:57.295Z,21.70
2018-12-06T22:17:23.271Z,21.60
2018-12-06T22:19:49.264Z,21.60
2018-12-06T22:22:15.272Z,21.60
2018-12-06T22:24:41.292Z,21.60
2018-12-06T22:27:07.297Z,21.50
2018-12-06T22:29:33.268Z,21.50
2018-12-06T22:31:59.248Z,21.50
2018-12-06T22:34:25.257Z,21.50
2018-12-06T22:36:51.226Z,21.40
2018-12-06T22:39:17.205Z,21.40
2018-12-06T22:41:43.223Z,21.40
2018-12-06T22:44:09.196Z,21.40
2018-12-06T22:46:35.164Z,21.30
2018-12-06T22:49:01.162Z,21.30
2018-12-06T22:51:27.152Z,21.30
2018-12-06T22:53:53.162Z,21.30
2018-12-06T22:56:19.161Z,21.20
2018-12-06T22:58:45.145Z,21.20
2018-12-06T23:01:11.127Z,21.20
2018-12-06T23:03:37.114Z,21.20
2018-12-06T23:06:03.094Z,21.20
2018-12-06T23:08:29.107Z,21.20
2018-12-06T23:10:55.075Z,21.20
2018-12-06T23:13:21.071Z,21.20
2018-12-06T23:15:47.477Z,21.20
2018-12-06T23:18:13.465Z,21.20
2018-12-06T23:20:39.451Z,21.20
2018-12-06T23:23:05.421Z,21.20
2018-12-06T23:25:31.403Z,21.20
2018-12-06T23:27:57.407Z,21.20
2018-12-06T23:30:23.397Z,21.20
2018-12-06T23:32:49.391Z,21.20
2018-12-06T23:35:15.387Z,21.20
2018-12-06T23:37:41.379Z,21.10
2018-12-06T23:40:07.368Z,21.10
2018-12-06T23:42:33.381Z,21.10
2018-12-06T23:44:59.340Z,21.10
2018-12-06T23:47:25.317Z,21.10
2018-12-06T23:49:51.308Z,21.10
2018-12-06T23:52:17.264Z,21.10
2018-12-06T23:54:43.255Z,21.10
2018-12-06T23:57:09.251Z,21.10
2018-12-06T23:59:35.232Z,21.10
